createdAt,value
2019-03-18T00:05:01.760Z,1.50
2019-03-18T00:10:07.741Z,1.20
2019-03-18T00:15:13.520Z,1.57
2019-03-18T00:20:19.052Z,1.50
2019-03-18T00:25:24.930Z,1.30
2019-03-18T00:30:30.617Z,1.47
2019-03-18T00:35:36.841Z,1.42
2019-03-18T00:40:42.831Z,1.30
2019-03-18T00:45:48.687Z,1.37
2019-03-18T00:50:54.392Z,1.12
2019-03-18T00:56:00.222Z,1.30
2019-03-18T01:01:06.045Z,1.30
2019-03-18T01:06:11.800Z,1.27
2019-03-18T01:11:17.502Z,1.27
2019-03-18T01:16:23.409Z,1.20
2019-03-18T01:21:29.467Z,1.70
2019-03-18T01:26:35.142Z,1.45
2019-03-18T01:31:40.782Z,1.20
2019-03-18T01:36:46.611Z,1.02
2019-03-18T01:41:52.410Z,1.30
2019-03-18T01:46:58.341Z,1.27
2019-03-18T01:52:04.160Z,1.20
2019-03-18T01:57:10.002Z,1.05
2019-03-18T02:02:15.962Z,1.37
2019-03-18T02:07:21.875Z,0.93
2019-03-18T02:12:27.651Z,1.40
2019-03-18T02:17:33.344Z,0.98
2019-03-18T02:22:39.433Z,1.32
2019-03-18T02:27:45.320Z,1.10
2019-03-18T02:32:51.315Z,1.10
2019-03-18T02:37:57.462Z,1.27
2019-03-18T02:43:03.353Z,1.30
2019-03-18T02:48:09.320Z,1.20
2019-03-18T02:53:15.130Z,0.90
2019-03-18T02:58:21.052Z,0.80
2019-03-18T03:03:27.082Z,0.90
2019-03-18T03:08:32.720Z,0.80
2019-03-18T03:13:38.094Z,0.55
2019-03-18T03:18:43.981Z,0.78
2019-03-18T03:23:49.292Z,0.80
2019-03-18T03:28:55.262Z,0.50
2019-03-18T03:34:01.169Z,0.90
2019-03-18T03:39:08.290Z,0.80
2019-03-18T03:44:14.212Z,0.68
2019-03-18T03:49:19.931Z,0.70
2019-03-18T03:54:25.832Z,0.70
2019-03-18T03:59:31.643Z,0.85
2019-03-18T04:04:37.882Z,0.75
2019-03-18T04:09:43.760Z,0.50
2019-03-18T04:14:49.172Z,0.50
2019-03-18T04:19:55.134Z,0.60
2019-03-18T04:25:01.101Z,0.60
2019-03-18T04:30:07.651Z,0.60
2019-03-18T04:35:13.894Z,0.72
2019-03-18T04:40:20.021Z,0.70
2019-03-18T04:45:25.850Z,0.60
2019-03-18T04:50:31.801Z,0.53
2019-03-18T04:55:37.561Z,0.62
2019-03-18T05:00:43.242Z,0.75
2019-03-18T05:05:49.101Z,0.60
2019-03-18T05:10:54.950Z,0.50
2019-03-18T05:16:00.761Z,0.88
2019-03-18T05:21:06.633Z,0.80
2019-03-18T05:26:12.290Z,0.40
2019-03-18T05:31:18.100Z,0.57
2019-03-18T05:36:23.790Z,0.70
2019-03-18T05:41:41.333Z,0.70
2019-03-18T05:46:47.151Z,0.40
2019-03-18T05:51:52.851Z,0.60
2019-03-18T05:56:59.011Z,0.50
2019-03-18T06:02:05.110Z,0.50
2019-03-18T06:07:10.842Z,0.53
2019-03-18T06:12:16.670Z,0.60
2019-03-18T06:17:22.627Z,0.55
2019-03-18T06:22:28.790Z,0.62
2019-03-18T06:27:34.630Z,0.60
2019-03-18T06:32:40.324Z,0.55
2019-03-18T06:37:46.471Z,0.40
2019-03-18T06:42:52.401Z,0.50
2019-03-18T06:48:04.977Z,0.30
2019-03-18T06:53:05.634Z,0.50
2019-03-18T06:58:11.300Z,0.60
2019-03-18T07:03:16.959Z,0.57
2019-03-18T07:08:23.070Z,0.50
2019-03-18T07:13:29.221Z,0.50
2019-03-18T07:18:35.151Z,0.78
2019-03-18T07:23:40.921Z,0.50
2019-03-18T07:28:47.210Z,0.37
2019-03-18T07:33:52.991Z,0.70
2019-03-18T07:38:58.662Z,0.50
2019-03-18T07:44:04.401Z,1.02
2019-03-18T07:49:10.082Z,0.53
2019-03-18T07:54:15.810Z,0.40
2019-03-18T07:59:21.450Z,0.70
2019-03-18T08:04:36.780Z,0.65
2019-03-18T08:09:34.842Z,0.40
2019-03-18T08:14:40.656Z,0.50
2019-03-18T08:19:46.421Z,0.37
2019-03-18T08:24:52.043Z,0.47
2019-03-18T08:29:57.811Z,0.40
2019-03-18T08:35:03.511Z,0.70
2019-03-18T08:40:09.370Z,0.75
2019-03-18T08:45:15.460Z,0.45
2019-03-18T08:50:21.270Z,0.50
2019-03-18T08:55:28.080Z,0.90
2019-03-18T09:00:34.390Z,0.70
2019-03-18T09:05:40.232Z,0.42
2019-03-18T09:10:46.062Z,0.62
2019-03-18T09:15:51.753Z,0.70
2019-03-18T09:20:59.021Z,0.60
2019-03-18T09:26:05.055Z,0.60
2019-03-18T09:31:10.854Z,0.70
2019-03-18T09:36:16.610Z,0.53
2019-03-18T09:41:22.441Z,0.50
2019-03-18T09:46:28.322Z,0.72
2019-03-18T09:51:34.120Z,0.50
2019-03-18T09:56:39.801Z,0.62
2019-03-18T10:01:45.531Z,0.55
2019-03-18T10:06:51.361Z,0.60
2019-03-18T10:11:57.113Z,0.50
2019-03-18T10:17:09.443Z,0.57
2019-03-18T10:22:10.192Z,0.50
2019-03-18T10:27:16.142Z,0.50
2019-03-18T10:32:22.106Z,0.60
2019-03-18T10:37:28.812Z,0.42
2019-03-18T10:42:34.896Z,0.50
2019-03-18T10:47:40.621Z,0.80
2019-03-18T10:52:46.568Z,0.47
2019-03-18T10:57:52.156Z,0.40
2019-03-18T11:02:58.022Z,0.50
2019-03-18T11:08:03.826Z,0.60
2019-03-18T11:13:09.614Z,0.45
2019-03-18T11:18:15.021Z,0.72
2019-03-18T11:23:21.150Z,0.50
2019-03-18T11:28:26.951Z,0.53
2019-03-18T11:33:32.165Z,0.70
2019-03-18T11:38:37.562Z,0.50
2019-03-18T11:43:43.751Z,1.37
2019-03-18T11:48:49.723Z,1.00
2019-03-18T11:53:55.450Z,1.42
2019-03-18T11:59:01.400Z,1.00
2019-03-18T12:04:07.420Z,0.65
2019-03-18T12:09:13.930Z,1.22
2019-03-18T12:14:20.140Z,0.90
2019-03-18T12:19:26.101Z,0.80
2019-03-18T12:24:33.274Z,0.88
2019-03-18T12:29:38.514Z,0.90
2019-03-18T12:34:44.642Z,0.60
2019-03-18T12:39:50.780Z,0.82
2019-03-18T12:44:57.791Z,0.88
2019-03-18T12:50:03.735Z,0.65
2019-03-18T12:55:09.642Z,0.80
2019-03-18T13:00:17.851Z,0.65
2019-03-18T13:05:23.731Z,0.80
2019-03-18T13:10:29.641Z,0.62
2019-03-18T13:15:35.484Z,0.60
2019-03-18T13:20:40.672Z,0.60
2019-03-18T13:25:46.451Z,0.90
2019-03-18T13:30:52.100Z,0.70
2019-03-18T13:35:57.893Z,0.60
2019-03-18T13:41:04.244Z,0.78
2019-03-18T13:46:10.212Z,0.82
2019-03-18T13:51:20.868Z,0.55
2019-03-18T13:56:23.545Z,0.62
2019-03-18T14:01:29.191Z,0.60
2019-03-18T14:06:34.801Z,0.80
2019-03-18T14:11:40.811Z,0.90
2019-03-18T14:16:46.822Z,1.10
2019-03-18T14:21:52.860Z,1.00
2019-03-18T14:26:58.541Z,0.90
2019-03-18T14:32:04.421Z,0.93
2019-03-18T14:37:10.023Z,0.70
2019-03-18T14:42:15.844Z,1.05
2019-03-18T14:47:21.792Z,0.90
2019-03-18T14:52:27.571Z,0.80
2019-03-18T14:57:33.593Z,0.88
2019-03-18T15:02:39.253Z,0.90
2019-03-18T15:07:44.811Z,0.80
2019-03-18T15:12:50.671Z,0.90
2019-03-18T15:17:56.520Z,0.80
2019-03-18T15:23:02.232Z,0.78
2019-03-18T15:28:08.452Z,0.80
2019-03-18T15:33:14.221Z,0.60
2019-03-18T15:38:20.043Z,0.60
2019-03-18T15:43:25.762Z,0.65
2019-03-18T15:48:31.786Z,0.70
2019-03-18T15:53:37.491Z,0.68
2019-03-18T15:58:43.262Z,0.90
2019-03-18T16:03:49.153Z,0.78
2019-03-18T16:08:54.904Z,0.65
2019-03-18T16:14:00.741Z,0.80
2019-03-18T16:19:06.512Z,0.80
2019-03-18T16:24:12.371Z,0.60
2019-03-18T16:29:17.971Z,0.60
2019-03-18T16:34:23.170Z,0.60
2019-03-18T16:39:29.181Z,0.70
2019-03-18T16:44:34.962Z,0.93
2019-03-18T16:49:40.912Z,0.57
2019-03-18T16:54:46.881Z,0.62
2019-03-18T16:59:52.581Z,1.00
2019-03-18T17:04:58.431Z,0.90
2019-03-18T17:10:04.971Z,0.80
2019-03-18T17:15:11.184Z,1.37
2019-03-18T17:20:16.983Z,0.80
2019-03-18T17:25:22.808Z,1.02
2019-03-18T17:30:28.550Z,1.90
2019-03-18T17:35:34.171Z,1.95
2019-03-18T17:40:39.873Z,2.27
2019-03-18T17:45:45.771Z,1.98
2019-03-18T17:50:51.736Z,1.70
2019-03-18T17:55:57.441Z,1.75
2019-03-18T18:01:03.575Z,1.30
2019-03-18T18:06:09.382Z,1.50
2019-03-18T18:11:15.102Z,1.40
2019-03-18T18:16:20.941Z,1.25
2019-03-18T18:21:26.582Z,1.20
2019-03-18T18:26:32.501Z,1.30
2019-03-18T18:31:38.411Z,0.98
2019-03-18T18:36:44.053Z,1.70
2019-03-18T18:41:49.682Z,1.22
2019-03-18T18:46:55.652Z,0.90
2019-03-18T18:52:01.480Z,1.25
2019-03-18T18:57:07.341Z,1.35
2019-03-18T19:02:12.821Z,1.07
2019-03-18T19:07:18.559Z,1.37
2019-03-18T19:12:24.443Z,1.30
2019-03-18T19:17:30.273Z,0.90
2019-03-18T19:22:36.000Z,1.15
2019-03-18T19:27:41.811Z,1.40
2019-03-18T19:32:47.520Z,1.60
2019-03-18T19:37:53.237Z,1.07
2019-03-18T19:42:59.222Z,0.93
2019-03-18T19:48:04.960Z,0.90
2019-03-18T19:53:10.732Z,0.90
2019-03-18T19:58:16.512Z,1.15
2019-03-18T20:03:22.572Z,1.10
2019-03-18T20:08:29.750Z,0.90
2019-03-18T20:13:35.270Z,0.98
2019-03-18T20:18:41.131Z,1.07
2019-03-18T20:24:00.092Z,1.22
2019-03-18T20:28:55.618Z,0.90
2019-03-18T20:34:01.805Z,0.98
2019-03-18T20:39:08.900Z,1.10
2019-03-18T20:44:14.811Z,1.10
2019-03-18T20:49:20.650Z,1.17
2019-03-18T20:54:26.541Z,1.02
2019-03-18T20:59:32.061Z,0.85
2019-03-18T21:04:37.901Z,0.90
2019-03-18T21:09:43.401Z,0.72
2019-03-18T21:14:49.741Z,1.00
2019-03-18T21:19:55.671Z,0.78
2019-03-18T21:25:01.699Z,0.82
2019-03-18T21:30:07.300Z,0.93
2019-03-18T21:35:13.071Z,1.00
2019-03-18T21:40:19.801Z,0.80
2019-03-18T21:45:26.314Z,1.00
2019-03-18T21:50:32.291Z,0.98
2019-03-18T21:55:38.522Z,1.00
2019-03-18T22:00:44.284Z,0.98
2019-03-18T22:05:50.392Z,0.90
2019-03-18T22:10:57.031Z,0.90
2019-03-18T22:16:04.051Z,0.90
2019-03-18T22:21:13.587Z,0.90
2019-03-18T22:26:19.706Z,0.93
2019-03-18T22:31:28.838Z,0.78
2019-03-18T22:36:35.591Z,0.90
2019-03-18T22:41:41.960Z,1.10
2019-03-18T22:46:47.721Z,0.93
2019-03-18T22:51:53.971Z,0.85
2019-03-18T22:57:01.153Z,0.90
2019-03-18T23:02:07.140Z,0.98
2019-03-18T23:07:12.870Z,0.80
2019-03-18T23:12:21.578Z,0.72
2019-03-18T23:17:27.070Z,0.60
2019-03-18T23:22:32.881Z,0.70
2019-03-18T23:27:38.674Z,1.00
2019-03-18T23:32:44.312Z,0.93
2019-03-18T23:37:49.862Z,0.80
2019-03-18T23:42:56.262Z,0.60
2019-03-18T23:48:02.519Z,0.82
2019-03-18T23:53:08.761Z,0.75
2019-03-18T23:58:14.259Z,0.78
